createdAt,value
2023-02-13T00:00:15.229Z,1021.01
2023-02-13T00:01:15.242Z,1021.06
2023-02-13T00:02:15.372Z,1021.05
2023-02-13T00:03:15.236Z,1021.05
2023-02-13T00:04:15.218Z,1021.02
2023-02-13T00:05:15.200Z,1021.04
2023-02-13T00:06:15.177Z,1021.07
2023-02-13T00:07:15.203Z,1021.07
2023-02-13T00:08:47.086Z,1021.06
2023-02-13T00:09:15.170Z,1021.10
2023-02-13T00:10:15.194Z,1021.07
2023-02-13T00:11:15.817Z,1021.09
2023-02-13T00:12:15.141Z,1021.09
2023-02-13T00:13:15.118Z,1021.06
2023-02-13T00:14:15.132Z,1021.05
2023-02-13T00:15:15.752Z,1021.05
2023-02-13T00:16:15.175Z,1021.06
2023-02-13T00:17:15.078Z,1021.07
2023-02-13T00:18:15.099Z,1021.05
2023-02-13T00:19:15.120Z,1021.06
2023-02-13T00:20:15.069Z,1020.93
2023-02-13T00:21:15.100Z,1021.02
2023-02-13T00:22:15.056Z,1020.95
2023-02-13T00:23:15.046Z,1020.92
2023-02-13T00:24:15.027Z,1020.88
2023-02-13T00:25:46.975Z,1020.92
2023-02-13T00:26:15.718Z,1020.96
2023-02-13T00:27:15.018Z,1020.94
2023-02-13T00:28:15.047Z,1020.92
2023-02-13T00:29:15.020Z,1020.86
2023-02-13T00:30:15.000Z,1020.92
2023-02-13T00:31:15.027Z,1020.93
2023-02-13T00:32:15.140Z,1020.95
2023-02-13T00:33:14.963Z,1020.88
2023-02-13T00:34:15.017Z,1020.90
2023-02-13T00:35:14.960Z,1020.92
2023-02-13T00:36:14.936Z,1020.84
2023-02-13T00:37:14.925Z,1020.90
2023-02-13T00:38:14.937Z,1020.87
2023-02-13T00:39:15.001Z,1020.85
2023-02-13T00:40:14.904Z,1020.89
2023-02-13T00:41:14.895Z,1020.90
2023-02-13T00:42:14.892Z,1020.86
2023-02-13T00:43:14.925Z,1020.90
2023-02-13T00:44:14.909Z,1020.88
2023-02-13T00:45:14.907Z,1020.87
2023-02-13T00:46:15.886Z,1020.85
2023-02-13T00:47:15.002Z,1020.85
2023-02-13T00:48:14.855Z,1020.88
2023-02-13T00:49:14.831Z,1020.88
2023-02-13T00:50:14.864Z,1020.86
2023-02-13T00:51:14.869Z,1020.93
2023-02-13T00:52:14.857Z,1020.90
2023-02-13T00:53:14.812Z,1020.93
2023-02-13T00:54:14.837Z,1020.93
2023-02-13T00:55:14.814Z,1020.99
2023-02-13T00:56:14.886Z,1020.92
2023-02-13T00:57:14.816Z,1020.93
2023-02-13T00:58:14.881Z,1020.96
2023-02-13T00:59:14.758Z,1020.88
2023-02-13T01:00:14.752Z,1020.88
2023-02-13T01:01:14.799Z,1020.89
2023-02-13T01:02:14.757Z,1020.87
2023-02-13T01:03:14.786Z,1020.93
2023-02-13T01:04:14.783Z,1020.92
2023-02-13T01:05:14.741Z,1020.86
2023-02-13T01:06:15.329Z,1020.94
2023-02-13T01:07:15.810Z,1020.88
2023-02-13T01:08:15.746Z,1020.86
2023-02-13T01:09:14.677Z,1020.87
2023-02-13T01:10:14.707Z,1020.87
2023-02-13T01:11:14.681Z,1020.84
2023-02-13T01:12:14.657Z,1020.85
2023-02-13T01:13:14.711Z,1020.84
2023-02-13T01:14:14.680Z,1020.85
2023-02-13T01:15:15.340Z,1020.89
2023-02-13T01:16:14.645Z,1020.87
2023-02-13T01:17:14.633Z,1020.88
2023-02-13T01:18:14.606Z,1020.89
2023-02-13T01:19:14.640Z,1020.85
2023-02-13T01:20:14.602Z,1020.87
2023-02-13T01:21:14.617Z,1020.83
2023-02-13T01:22:14.598Z,1020.86
2023-02-13T01:23:14.598Z,1020.88
2023-02-13T01:24:14.610Z,1020.85
2023-02-13T01:25:14.576Z,1020.87
2023-02-13T01:26:14.565Z,1020.84
2023-02-13T01:27:16.550Z,1020.90
2023-02-13T01:28:14.578Z,1020.85
2023-02-13T01:29:14.568Z,1020.90
2023-02-13T01:30:14.611Z,1020.89
2023-02-13T01:31:14.696Z,1020.85
2023-02-13T01:32:14.568Z,1020.85
2023-02-13T01:33:14.525Z,1020.88
2023-02-13T01:34:14.565Z,1020.84
2023-02-13T01:35:14.484Z,1020.86
2023-02-13T01:36:14.499Z,1020.81
2023-02-13T01:37:14.489Z,1020.83
2023-02-13T01:38:14.502Z,1020.81
2023-02-13T01:39:14.519Z,1020.80
2023-02-13T01:40:14.436Z,1020.77
2023-02-13T01:41:14.457Z,1020.83
2023-02-13T01:42:14.439Z,1020.73
2023-02-13T01:43:14.424Z,1020.79
2023-02-13T01:44:14.422Z,1020.74
2023-02-13T01:45:14.446Z,1020.77
2023-02-13T01:46:14.457Z,1020.72
2023-02-13T01:47:14.412Z,1020.72
2023-02-13T01:48:14.425Z,1020.74
2023-02-13T01:49:14.424Z,1020.71
2023-02-13T01:50:14.506Z,1020.71
2023-02-13T01:51:15.388Z,1020.71
2023-02-13T01:52:14.358Z,1020.68
2023-02-13T01:53:14.385Z,1020.70
2023-02-13T01:54:14.342Z,1020.69
2023-02-13T01:55:14.379Z,1020.69
2023-02-13T01:56:14.340Z,1020.79
2023-02-13T01:57:14.342Z,1020.74
2023-02-13T01:58:14.303Z,1020.73
2023-02-13T01:59:14.823Z,1020.75
2023-02-13T02:00:14.300Z,1020.76
2023-02-13T02:01:14.285Z,1020.76
2023-02-13T02:02:14.426Z,1020.80
2023-02-13T02:03:14.294Z,1020.72
2023-02-13T02:04:14.287Z,1020.75
2023-02-13T02:05:14.252Z,1020.74
2023-02-13T02:06:14.263Z,1020.74
2023-02-13T02:07:14.230Z,1020.75
2023-02-13T02:08:14.273Z,1020.77
2023-02-13T02:09:14.288Z,1020.75
2023-02-13T02:10:14.221Z,1020.77
2023-02-13T02:11:14.216Z,1020.78
2023-02-13T02:12:14.204Z,1020.77
2023-02-13T02:13:14.225Z,1020.68
2023-02-13T02:14:14.182Z,1020.76
2023-02-13T02:15:14.188Z,1020.74
2023-02-13T02:16:14.233Z,1020.79
2023-02-13T02:17:14.152Z,1020.76
2023-02-13T02:18:14.161Z,1020.72
2023-02-13T02:19:14.796Z,1020.74
2023-02-13T02:20:14.150Z,1020.74
2023-02-13T02:21:14.119Z,1020.81
2023-02-13T02:22:14.107Z,1020.73
2023-02-13T02:23:14.105Z,1020.70
2023-02-13T02:24:14.149Z,1020.76
2023-02-13T02:25:14.073Z,1020.70
2023-02-13T02:26:14.126Z,1020.74
2023-02-13T02:27:14.095Z,1020.71
2023-02-13T02:28:14.081Z,1020.69
2023-02-13T02:29:14.060Z,1020.72
2023-02-13T02:30:14.063Z,1020.69
2023-02-13T02:31:14.206Z,1020.70
2023-02-13T02:32:14.046Z,1020.67
2023-02-13T02:33:14.027Z,1020.71
2023-02-13T02:34:14.020Z,1020.69
2023-02-13T02:35:14.020Z,1020.72
2023-02-13T02:36:14.044Z,1020.72
2023-02-13T02:37:14.030Z,1020.74
2023-02-13T02:38:13.989Z,1020.77
2023-02-13T02:39:14.003Z,1020.71
2023-02-13T02:40:13.981Z,1020.75
2023-02-13T02:41:13.979Z,1020.72
2023-02-13T02:42:13.957Z,1020.76
2023-02-13T02:43:13.961Z,1020.78
2023-02-13T02:44:13.954Z,1020.72
2023-02-13T02:45:13.957Z,1020.73
2023-02-13T02:46:13.974Z,1020.82
2023-02-13T02:47:13.921Z,1020.77
2023-02-13T02:48:13.947Z,1020.76
2023-02-13T02:49:14.925Z,1020.79
2023-02-13T02:50:13.909Z,1020.78
2023-02-13T02:51:13.921Z,1020.81
2023-02-13T02:52:13.867Z,1020.80
2023-02-13T02:53:13.880Z,1020.77
2023-02-13T02:54:13.881Z,1020.79
2023-02-13T02:55:13.968Z,1020.77
2023-02-13T02:56:13.861Z,1020.79
2023-02-13T02:57:13.832Z,1020.80
2023-02-13T02:58:13.828Z,1020.73
2023-02-13T02:59:13.863Z,1020.77
2023-02-13T03:00:13.840Z,1020.74
2023-02-13T03:01:13.877Z,1020.71
2023-02-13T03:02:13.813Z,1020.68
2023-02-13T03:03:13.821Z,1020.66
2023-02-13T03:04:14.013Z,1020.65
2023-02-13T03:05:13.807Z,1020.58
2023-02-13T03:06:13.756Z,1020.60
2023-02-13T03:07:14.764Z,1020.59
2023-02-13T03:08:13.767Z,1020.59
2023-02-13T03:09:13.769Z,1020.60
2023-02-13T03:10:13.747Z,1020.62
2023-02-13T03:11:13.735Z,1020.59
2023-02-13T03:12:13.735Z,1020.64
2023-02-13T03:13:13.703Z,1020.58
2023-02-13T03:14:14.326Z,1020.60
2023-02-13T03:15:13.680Z,1020.60
2023-02-13T03:16:13.727Z,1020.68
2023-02-13T03:17:13.682Z,1020.64
2023-02-13T03:18:13.674Z,1020.64
2023-02-13T03:19:13.662Z,1020.60
2023-02-13T03:20:13.696Z,1020.59
2023-02-13T03:21:13.642Z,1020.62
2023-02-13T03:22:13.634Z,1020.66
2023-02-13T03:23:13.651Z,1020.63
2023-02-13T03:24:13.613Z,1020.62
2023-02-13T03:25:13.621Z,1020.62
2023-02-13T03:26:13.619Z,1020.64
2023-02-13T03:27:13.612Z,1020.65
2023-02-13T03:28:13.640Z,1020.62
2023-02-13T03:29:13.594Z,1020.63
2023-02-13T03:30:13.589Z,1020.63
2023-02-13T03:31:13.693Z,1020.62
2023-02-13T03:32:13.562Z,1020.67
2023-02-13T03:33:13.547Z,1020.68
2023-02-13T03:34:13.543Z,1020.69
2023-02-13T03:35:13.537Z,1020.67
2023-02-13T03:36:13.561Z,1020.65
2023-02-13T03:37:13.551Z,1020.65
2023-02-13T03:38:13.507Z,1020.64
2023-02-13T03:39:13.529Z,1020.67
2023-02-13T03:40:13.530Z,1020.65
2023-02-13T03:41:13.519Z,1020.65
2023-02-13T03:42:13.512Z,1020.59
2023-02-13T03:43:13.513Z,1020.62
2023-02-13T03:44:13.488Z,1020.61
2023-02-13T03:45:13.461Z,1020.67
2023-02-13T03:46:14.544Z,1020.63
2023-02-13T03:47:13.455Z,1020.66
2023-02-13T04:03:16.413Z,1020.99
2023-02-13T04:04:16.418Z,1020.99
2023-02-13T04:05:16.440Z,1020.93
2023-02-13T04:06:17.551Z,1020.99
2023-02-13T04:07:17.498Z,1020.96
2023-02-13T04:08:17.501Z,1020.95
2023-02-13T04:09:17.518Z,1020.94
2023-02-13T04:10:17.547Z,1020.94
2023-02-13T04:11:17.484Z,1020.99
2023-02-13T04:12:17.466Z,1020.94
2023-02-13T04:13:17.460Z,1020.87
2023-02-13T04:14:17.450Z,1020.94
2023-02-13T04:15:17.481Z,1020.94
2023-02-13T04:16:17.468Z,1020.92
2023-02-13T04:17:17.423Z,1020.95
2023-02-13T04:18:17.438Z,1020.93
2023-02-13T04:19:17.407Z,1020.82
2023-02-13T04:20:17.458Z,1020.87
2023-02-13T04:21:17.424Z,1020.84
2023-02-13T04:22:17.437Z,1020.86
2023-02-13T04:23:17.381Z,1020.87
2023-02-13T04:24:17.380Z,1020.88
2023-02-13T04:25:17.367Z,1020.90
2023-02-13T04:26:17.380Z,1020.83
2023-02-13T04:27:17.379Z,1020.83
2023-02-13T04:28:17.405Z,1020.84
2023-02-13T04:29:17.343Z,1020.83
2023-02-13T04:30:17.342Z,1020.81
2023-02-13T04:31:17.460Z,1020.83
2023-02-13T04:32:17.398Z,1020.77
2023-02-13T04:33:17.312Z,1020.78
2023-02-13T04:34:17.297Z,1020.77
2023-02-13T04:35:17.326Z,1020.76
2023-02-13T04:36:17.312Z,1020.80
2023-02-13T04:37:17.683Z,1020.78
2023-02-13T04:38:17.268Z,1020.80
2023-02-13T04:39:17.285Z,1020.78
2023-02-13T04:40:17.276Z,1020.77
2023-02-13T04:41:17.256Z,1020.82
2023-02-13T04:42:17.289Z,1020.76
2023-02-13T04:43:17.661Z,1020.75
2023-02-13T04:44:18.111Z,1020.77
2023-02-13T04:45:17.243Z,1020.75
2023-02-13T04:46:17.305Z,1020.74
2023-02-13T04:47:17.210Z,1020.71
2023-02-13T04:48:17.209Z,1020.71
2023-02-13T04:49:17.191Z,1020.72
2023-02-13T04:50:17.192Z,1020.66
2023-02-13T04:51:17.184Z,1020.64
2023-02-13T04:52:18.116Z,1020.64
2023-02-13T04:53:17.241Z,1020.63
2023-02-13T04:54:17.170Z,1020.65
2023-02-13T04:55:17.177Z,1020.62
2023-02-13T04:56:18.950Z,1020.56
2023-02-13T04:57:17.134Z,1020.62
2023-02-13T04:58:17.168Z,1020.55
2023-02-13T04:59:17.127Z,1020.56
2023-02-13T05:00:17.190Z,1020.60
2023-02-13T05:01:17.221Z,1020.58
2023-02-13T05:02:17.126Z,1020.56
2023-02-13T05:03:17.089Z,1020.58
2023-02-13T05:04:17.094Z,1020.58
2023-02-13T05:05:17.134Z,1020.60
2023-02-13T05:06:17.093Z,1020.62
2023-02-13T05:07:17.069Z,1020.61
2023-02-13T05:08:17.046Z,1020.55
2023-02-13T05:09:17.037Z,1020.57
2023-02-13T05:10:17.158Z,1020.56
2023-02-13T05:11:17.068Z,1020.58
2023-02-13T05:12:17.050Z,1020.60
2023-02-13T05:13:17.061Z,1020.55
2023-02-13T05:14:17.005Z,1020.59
2023-02-13T05:15:17.031Z,1020.52
2023-02-13T05:16:17.027Z,1020.59
2023-02-13T05:17:16.989Z,1020.53
2023-02-13T05:18:16.997Z,1020.59
2023-02-13T05:19:16.982Z,1020.61
2023-02-13T05:20:17.013Z,1020.57
2023-02-13T05:21:16.964Z,1020.55
2023-02-13T05:22:16.968Z,1020.48
2023-02-13T05:23:16.934Z,1020.55
2023-02-13T05:24:18.898Z,1020.51
2023-02-13T05:25:16.955Z,1020.53
2023-02-13T05:26:16.920Z,1020.55
2023-02-13T05:27:16.913Z,1020.55
2023-02-13T05:28:16.957Z,1020.59
2023-02-13T05:29:16.919Z,1020.56
2023-02-13T05:30:16.902Z,1020.57
2023-02-13T05:31:17.002Z,1020.60
2023-02-13T05:32:16.911Z,1020.62
2023-02-13T05:33:16.967Z,1020.57
2023-02-13T05:34:16.874Z,1020.58
2023-02-13T05:35:16.842Z,1020.59
2023-02-13T05:36:16.852Z,1020.60
2023-02-13T05:37:16.837Z,1020.61
2023-02-13T05:38:16.936Z,1020.62
2023-02-13T05:39:16.837Z,1020.59
2023-02-13T05:40:16.827Z,1020.59
2023-02-13T05:41:16.824Z,1020.60
2023-02-13T05:42:16.847Z,1020.60
2023-02-13T05:43:16.773Z,1020.62
2023-02-13T05:44:16.779Z,1020.59
2023-02-13T05:45:16.773Z,1020.57
2023-02-13T05:46:17.651Z,1020.64
2023-02-13T05:47:16.777Z,1020.63
2023-02-13T05:48:16.780Z,1020.67
2023-02-13T05:49:16.772Z,1020.62
2023-02-13T05:50:16.787Z,1020.64
2023-02-13T05:51:16.742Z,1020.68
2023-02-13T05:52:16.736Z,1020.69
2023-02-13T05:53:16.743Z,1020.64
2023-02-13T05:54:16.710Z,1020.65
2023-02-13T05:55:16.771Z,1020.58
2023-02-13T05:56:16.695Z,1020.62
2023-02-13T05:57:16.673Z,1020.62
2023-02-13T05:58:16.679Z,1020.61
2023-02-13T05:59:16.705Z,1020.62
2023-02-13T06:00:16.668Z,1020.66
2023-02-13T06:01:17.623Z,1020.57
2023-02-13T06:02:16.693Z,1020.63
2023-02-13T06:03:16.633Z,1020.67
2023-02-13T06:04:16.727Z,1020.64
2023-02-13T06:05:16.698Z,1020.61
2023-02-13T06:06:16.637Z,1020.63
2023-02-13T06:07:16.692Z,1020.62
2023-02-13T06:08:16.642Z,1020.64
2023-02-13T06:09:16.667Z,1020.61
2023-02-13T06:10:16.684Z,1020.56
2023-02-13T06:11:16.586Z,1020.57
2023-02-13T06:12:16.573Z,1020.66
2023-02-13T06:13:16.576Z,1020.61
2023-02-13T06:14:16.544Z,1020.62
2023-02-13T06:15:16.565Z,1020.63
2023-02-13T06:16:16.577Z,1020.59
2023-02-13T06:17:16.521Z,1020.56
2023-02-13T06:18:16.527Z,1020.64
2023-02-13T06:19:16.541Z,1020.56
2023-02-13T06:20:16.583Z,1020.56
2023-02-13T06:21:16.550Z,1020.55
2023-02-13T06:22:16.515Z,1020.54
2023-02-13T06:23:16.508Z,1020.56
2023-02-13T06:24:16.484Z,1020.53
2023-02-13T06:25:48.446Z,1020.58
2023-02-13T06:26:16.544Z,1020.58
2023-02-13T06:27:16.520Z,1020.61
2023-02-13T06:28:16.551Z,1020.58
2023-02-13T06:29:16.434Z,1020.66
2023-02-13T06:30:16.448Z,1020.63
2023-02-13T06:31:16.544Z,1020.59
2023-02-13T06:32:16.471Z,1020.59
2023-02-13T06:33:16.559Z,1020.62
2023-02-13T06:34:17.230Z,1020.68
2023-02-13T06:35:16.450Z,1020.68
2023-02-13T06:36:16.400Z,1020.66
2023-02-13T06:37:16.403Z,1020.66
2023-02-13T06:38:16.402Z,1020.64
2023-02-13T06:39:16.394Z,1020.67
2023-02-13T06:40:16.360Z,1020.72
2023-02-13T06:41:16.361Z,1020.68
2023-02-13T06:42:16.382Z,1020.68
2023-02-13T06:43:16.425Z,1020.75
2023-02-13T06:44:16.406Z,1020.74
2023-02-13T06:45:16.329Z,1020.78
2023-02-13T06:46:17.255Z,1020.79
2023-02-13T06:47:16.336Z,1020.78
2023-02-13T06:48:16.327Z,1020.75
2023-02-13T06:49:16.331Z,1020.85
2023-02-13T06:50:16.326Z,1020.81
2023-02-13T06:51:16.332Z,1020.82
2023-02-13T06:52:16.339Z,1020.87
2023-02-13T06:53:16.274Z,1020.89
2023-02-13T06:54:16.277Z,1020.90
2023-02-13T06:55:16.297Z,1020.88
2023-02-13T06:56:16.247Z,1020.95
2023-02-13T06:57:16.250Z,1020.91
2023-02-13T06:58:16.221Z,1020.98
2023-02-13T06:59:16.225Z,1020.92
2023-02-13T07:00:16.239Z,1020.91
2023-02-13T07:01:16.373Z,1020.96
2023-02-13T07:02:16.230Z,1020.93
2023-02-13T07:03:16.203Z,1020.93
2023-02-13T07:04:16.210Z,1020.85
2023-02-13T07:05:16.212Z,1020.89
2023-02-13T07:06:16.174Z,1020.94
2023-02-13T07:07:16.175Z,1020.91
2023-02-13T07:08:17.169Z,1020.85
2023-02-13T07:09:16.173Z,1020.86
2023-02-13T07:10:16.158Z,1020.87
2023-02-13T07:11:16.145Z,1020.92
2023-02-13T07:12:16.147Z,1020.81
2023-02-13T07:13:16.159Z,1020.83
2023-02-13T07:14:16.194Z,1020.83
2023-02-13T07:15:16.107Z,1020.85
2023-02-13T07:16:16.160Z,1020.87
2023-02-13T07:17:16.089Z,1020.91
2023-02-13T07:18:16.096Z,1020.88
2023-02-13T07:19:16.081Z,1020.86
2023-02-13T07:20:16.064Z,1020.89
2023-02-13T07:21:16.167Z,1020.90
2023-02-13T07:22:16.087Z,1020.87
2023-02-13T07:23:16.036Z,1020.84
2023-02-13T07:24:16.068Z,1020.85
2023-02-13T07:25:16.025Z,1020.90
2023-02-13T07:26:16.008Z,1020.86
2023-02-13T07:27:16.048Z,1020.81
2023-02-13T07:28:16.027Z,1020.78
2023-02-13T07:29:15.985Z,1020.74
2023-02-13T07:30:15.985Z,1020.76
2023-02-13T07:31:16.097Z,1020.79
2023-02-13T07:32:16.153Z,1020.75
2023-02-13T07:33:16.006Z,1020.75
2023-02-13T07:34:15.974Z,1020.83
2023-02-13T07:35:15.958Z,1020.84
2023-02-13T07:36:15.936Z,1020.85
2023-02-13T07:37:15.968Z,1020.87
2023-02-13T07:38:15.938Z,1020.81
2023-02-13T07:39:15.928Z,1020.84
2023-02-13T07:40:15.936Z,1020.78
2023-02-13T07:41:15.914Z,1020.72
2023-02-13T07:42:15.889Z,1020.55
2023-02-13T07:43:15.918Z,1020.36
2023-02-13T07:44:15.902Z,1020.23
2023-02-13T07:45:15.868Z,1020.14
2023-02-13T07:46:15.870Z,1020.07
2023-02-13T07:47:17.757Z,1019.92
2023-02-13T07:48:15.865Z,1019.92
2023-02-13T07:49:15.850Z,1019.81
2023-02-13T07:50:15.878Z,1019.73
2023-02-13T07:51:15.885Z,1019.68
2023-02-13T07:52:15.861Z,1019.73
2023-02-13T07:53:15.816Z,1019.66
2023-02-13T07:54:16.667Z,1019.57
2023-02-13T07:55:15.835Z,1019.50
2023-02-13T07:56:15.793Z,1019.45
2023-02-13T07:57:15.797Z,1019.43
2023-02-13T07:58:15.766Z,1019.41
2023-02-13T07:59:15.794Z,1019.42
2023-02-13T08:00:15.790Z,1019.33
2023-02-13T08:01:15.765Z,1019.27
2023-02-13T08:02:15.862Z,1019.27
2023-02-13T08:03:15.744Z,1019.20
2023-02-13T08:04:15.814Z,1019.19
2023-02-13T08:05:15.821Z,1019.16
2023-02-13T08:06:15.755Z,1019.19
2023-02-13T08:07:15.733Z,1019.08
2023-02-13T08:08:15.727Z,1019.10
2023-02-13T08:09:15.715Z,1019.14
2023-02-13T08:10:15.752Z,1018.99
2023-02-13T08:11:15.680Z,1019.10
2023-02-13T08:12:15.681Z,1019.10
2023-02-13T08:13:15.661Z,1019.05
2023-02-13T08:14:15.669Z,1019.12
2023-02-13T08:15:15.690Z,1019.10
2023-02-13T08:16:15.721Z,1019.11
2023-02-13T08:17:15.641Z,1019.02
2023-02-13T08:18:16.670Z,1019.01
2023-02-13T08:19:15.718Z,1018.98
2023-02-13T08:20:15.616Z,1018.97
2023-02-13T08:21:15.685Z,1018.98
2023-02-13T08:22:16.150Z,1019.01
2023-02-13T08:23:15.725Z,1019.02
2023-02-13T08:24:15.570Z,1018.98
2023-02-13T08:25:16.724Z,1019.05
2023-02-13T08:26:15.593Z,1019.05
2023-02-13T08:27:15.695Z,1018.98
2023-02-13T08:28:15.630Z,1018.96
2023-02-13T08:29:15.551Z,1018.98
2023-02-13T08:30:15.569Z,1018.97
2023-02-13T08:31:15.581Z,1018.93
2023-02-13T08:32:15.548Z,1018.93
2023-02-13T08:33:15.518Z,1018.95
2023-02-13T08:34:15.512Z,1018.89
2023-02-13T08:35:15.529Z,1018.87
2023-02-13T08:36:16.287Z,1018.87
2023-02-13T08:37:15.517Z,1018.91
2023-02-13T08:38:16.156Z,1018.87
2023-02-13T08:39:15.479Z,1018.88
2023-02-13T08:40:15.475Z,1018.89
2023-02-13T08:42:16.339Z,1018.91
2023-02-13T08:43:15.450Z,1018.91
2023-02-13T08:44:15.475Z,1018.94
2023-02-13T08:45:16.078Z,1018.87
2023-02-13T08:46:15.488Z,1018.88
2023-02-13T08:47:15.476Z,1018.86
2023-02-13T08:48:15.444Z,1018.92
2023-02-13T08:49:15.412Z,1018.89
2023-02-13T08:50:15.391Z,1018.97
2023-02-13T08:51:15.393Z,1018.92
2023-02-13T08:52:15.400Z,1018.92
2023-02-13T08:53:15.425Z,1018.92
2023-02-13T08:54:15.380Z,1018.90
2023-02-13T08:55:15.361Z,1018.91
2023-02-13T08:56:15.356Z,1018.88
2023-02-13T08:57:15.332Z,1018.87
2023-02-13T08:58:15.370Z,1018.87
2023-02-13T08:59:15.331Z,1018.94
2023-02-13T09:00:15.313Z,1018.97
2023-02-13T09:01:15.382Z,1019.01
2023-02-13T09:02:15.315Z,1018.95
2023-02-13T09:03:15.383Z,1019.01
2023-02-13T09:04:15.321Z,1019.02
2023-02-13T09:05:15.271Z,1018.97
2023-02-13T09:06:15.284Z,1018.98
2023-02-13T09:07:15.248Z,1018.94
2023-02-13T09:08:16.606Z,1019.00
2023-02-13T09:09:15.250Z,1018.97
2023-02-13T09:10:15.272Z,1018.97
2023-02-13T09:11:15.256Z,1019.00
2023-02-13T09:12:15.280Z,1018.94
2023-02-13T09:13:15.219Z,1018.99
2023-02-13T09:14:16.161Z,1018.99
2023-02-13T09:15:15.220Z,1019.03
2023-02-13T09:16:15.256Z,1018.98
2023-02-13T09:17:15.218Z,1019.07
2023-02-13T09:18:15.191Z,1019.03
2023-02-13T09:19:15.169Z,1019.03
2023-02-13T09:20:15.178Z,1019.05
2023-02-13T09:21:15.158Z,1019.07
2023-02-13T09:22:15.156Z,1019.04
2023-02-13T09:23:15.137Z,1019.03
2023-02-13T09:24:15.131Z,1019.06
2023-02-13T09:25:15.130Z,1019.04
2023-02-13T09:26:15.145Z,1019.07
2023-02-13T09:27:15.148Z,1019.02
2023-02-13T09:28:15.199Z,1019.06
2023-02-13T09:29:15.104Z,1019.04
2023-02-13T09:30:15.107Z,1019.03
2023-02-13T09:31:15.333Z,1019.04
2023-02-13T09:32:15.189Z,1019.00
2023-02-13T09:33:15.097Z,1019.06
2023-02-13T09:34:15.061Z,1019.06
2023-02-13T09:35:15.108Z,1019.05
2023-02-13T09:36:15.093Z,1019.03
2023-02-13T09:37:15.183Z,1019.12
2023-02-13T09:38:15.079Z,1019.05
2023-02-13T09:39:15.039Z,1019.13
2023-02-13T09:40:15.026Z,1019.11
2023-02-13T09:41:16.928Z,1019.10
2023-02-13T09:42:15.017Z,1019.13
2023-02-13T09:43:14.997Z,1019.08
2023-02-13T09:44:14.978Z,1019.10
2023-02-13T09:45:14.991Z,1019.12
2023-02-13T09:46:15.034Z,1019.08
2023-02-13T09:47:15.018Z,1019.05
2023-02-13T09:48:15.088Z,1019.18
2023-02-13T09:49:14.971Z,1019.09
2023-02-13T09:50:15.018Z,1019.06
2023-02-13T09:51:14.925Z,1019.09
2023-02-13T09:52:14.991Z,1019.10
2023-02-13T09:53:14.916Z,1019.08
2023-02-13T09:54:14.904Z,1019.09
2023-02-13T09:55:14.917Z,1019.11
2023-02-13T09:56:14.915Z,1019.08
2023-02-13T09:57:14.878Z,1019.07
2023-02-13T09:58:15.871Z,1019.07
2023-02-13T09:59:14.883Z,1019.06
2023-02-13T10:00:14.918Z,1019.14
2023-02-13T10:01:14.870Z,1019.13
2023-02-13T10:02:14.848Z,1019.11
2023-02-13T10:03:14.861Z,1019.14
2023-02-13T10:04:14.825Z,1019.11
2023-02-13T10:05:14.904Z,1019.09
2023-02-13T10:06:14.837Z,1019.07
2023-02-13T10:07:14.844Z,1019.05
2023-02-13T10:08:14.829Z,1019.09
2023-02-13T10:09:14.790Z,1019.07
2023-02-13T10:10:14.789Z,1019.10
2023-02-13T10:11:14.773Z,1019.14
2023-02-13T10:12:14.770Z,1019.14
2023-02-13T10:13:14.756Z,1019.15
2023-02-13T10:14:14.730Z,1019.20
2023-02-13T10:15:14.755Z,1019.17
2023-02-13T10:16:14.788Z,1019.15
2023-02-13T10:17:14.717Z,1019.15
2023-02-13T10:18:14.748Z,1019.18
2023-02-13T10:19:14.718Z,1019.13
2023-02-13T10:20:14.732Z,1019.21
2023-02-13T10:21:14.773Z,1019.28
2023-02-13T10:22:14.683Z,1019.21
2023-02-13T10:23:14.696Z,1019.29
2023-02-13T10:24:14.671Z,1019.25
2023-02-13T10:25:14.662Z,1019.27
2023-02-13T10:26:14.673Z,1019.28
2023-02-13T10:27:14.629Z,1019.26
2023-02-13T10:28:14.714Z,1019.29
2023-02-13T10:29:14.643Z,1019.22
2023-02-13T10:30:14.647Z,1019.27
2023-02-13T10:31:14.849Z,1019.26
2023-02-13T10:32:14.716Z,1019.28
2023-02-13T10:33:14.626Z,1019.22
2023-02-13T10:34:14.590Z,1019.27
2023-02-13T10:35:14.609Z,1019.27
2023-02-13T10:36:14.651Z,1019.28
2023-02-13T10:37:14.582Z,1019.28
2023-02-13T10:38:14.556Z,1019.26
2023-02-13T10:39:14.598Z,1019.26
2023-02-13T10:40:15.591Z,1019.29
2023-02-13T10:41:14.561Z,1019.33
2023-02-13T10:42:14.561Z,1019.25
2023-02-13T10:43:14.527Z,1019.30
2023-02-13T10:44:14.562Z,1019.32
2023-02-13T10:45:14.519Z,1019.33
2023-02-13T10:46:14.586Z,1019.31
2023-02-13T10:47:14.489Z,1019.28
2023-02-13T10:48:14.509Z,1019.30
2023-02-13T10:49:14.586Z,1019.33
2023-02-13T10:50:14.483Z,1019.29
2023-02-13T10:51:14.464Z,1019.30
2023-02-13T10:52:14.464Z,1019.30
2023-02-13T10:53:14.459Z,1019.28
2023-02-13T10:54:14.490Z,1019.25
2023-02-13T10:55:14.460Z,1019.26
2023-02-13T10:56:14.421Z,1019.28
2023-02-13T10:57:14.424Z,1019.26
2023-02-13T10:58:14.422Z,1019.21
2023-02-13T10:59:14.444Z,1019.22
2023-02-13T11:00:14.391Z,1019.19
2023-02-13T11:01:14.531Z,1019.16
2023-02-13T11:02:14.414Z,1019.17
2023-02-13T11:03:14.393Z,1019.14
2023-02-13T11:04:14.415Z,1019.09
2023-02-13T11:05:14.358Z,1019.16
2023-02-13T11:06:14.349Z,1019.11
2023-02-13T11:07:14.349Z,1019.13
2023-02-13T11:08:14.350Z,1019.08
2023-02-13T11:09:14.330Z,1019.14
2023-02-13T11:10:14.333Z,1019.11
2023-02-13T11:11:14.314Z,1019.08
2023-02-13T11:12:14.304Z,1019.09
2023-02-13T11:13:14.292Z,1019.12
2023-02-13T11:14:14.276Z,1019.15
2023-02-13T11:15:14.277Z,1019.12
2023-02-13T11:16:14.330Z,1019.11
2023-02-13T11:17:14.272Z,1019.19
2023-02-13T11:18:14.301Z,1019.11
2023-02-13T11:19:14.240Z,1019.12
2023-02-13T11:20:14.284Z,1019.11
2023-02-13T11:21:14.223Z,1019.06
2023-02-13T11:22:14.265Z,1019.08
2023-02-13T11:23:14.243Z,1019.06
2023-02-13T11:24:14.217Z,1019.11
2023-02-13T11:25:14.209Z,1019.09
2023-02-13T11:26:14.188Z,1019.09
2023-02-13T11:27:14.223Z,1019.09
2023-02-13T11:28:14.240Z,1019.06
2023-02-13T11:29:14.176Z,1019.14
2023-02-13T11:30:14.165Z,1019.14
2023-02-13T11:31:14.269Z,1019.13
2023-02-13T11:32:14.321Z,1019.13
2023-02-13T11:33:14.161Z,1019.12
2023-02-13T11:34:14.158Z,1019.09
2023-02-13T11:35:14.178Z,1019.16
2023-02-13T11:36:14.175Z,1019.17
2023-02-13T11:37:14.193Z,1019.08
2023-02-13T11:38:14.125Z,1019.04
2023-02-13T11:39:14.087Z,1019.04
2023-02-13T11:40:14.081Z,1019.07
2023-02-13T11:41:14.092Z,1018.97
2023-02-13T11:42:45.989Z,1019.01
2023-02-13T11:43:46.011Z,1019.07
2023-02-13T11:44:14.082Z,1019.10
2023-02-13T11:45:14.034Z,1019.08
2023-02-13T11:46:15.507Z,1019.03
2023-02-13T11:47:14.033Z,1019.04
2023-02-13T11:48:14.044Z,1019.08
2023-02-13T11:49:14.781Z,1019.08
2023-02-13T11:50:14.022Z,1019.09
2023-02-13T11:51:14.059Z,1019.09
2023-02-13T11:52:14.023Z,1019.03
2023-02-13T11:53:14.805Z,1019.03
2023-02-13T11:54:13.996Z,1019.03
2023-02-13T11:55:13.976Z,1018.96
2023-02-13T11:56:13.966Z,1018.99
2023-02-13T11:57:13.993Z,1019.03
2023-02-13T11:58:13.982Z,1018.99
2023-02-13T11:59:13.942Z,1018.95
2023-02-13T12:00:14.058Z,1018.94
2023-02-13T12:01:13.995Z,1018.96
2023-02-13T12:02:14.011Z,1018.92
2023-02-13T12:03:14.057Z,1018.96
2023-02-13T12:04:13.910Z,1018.88
2023-02-13T12:05:13.931Z,1018.90
2023-02-13T12:06:13.935Z,1018.85
2023-02-13T12:07:13.904Z,1018.83
2023-02-13T12:08:13.866Z,1018.87
2023-02-13T12:09:13.879Z,1018.87
2023-02-13T12:10:13.979Z,1018.89
2023-02-13T12:11:13.874Z,1018.89
2023-02-13T12:12:13.885Z,1018.85
2023-02-13T12:13:13.855Z,1018.84
2023-02-13T12:14:13.829Z,1018.82
2023-02-13T12:15:13.860Z,1018.82
2023-02-13T12:16:13.891Z,1018.80
2023-02-13T12:17:25.529Z,1018.82
2023-02-13T12:18:15.816Z,1018.84
2023-02-13T12:19:13.814Z,1018.84
2023-02-13T12:20:13.838Z,1018.89
2023-02-13T12:21:13.770Z,1018.81